createdAt,value
2022-11-04T00:04:31.280Z,12.17
2022-11-04T00:11:51.504Z,12.07
2022-11-04T00:18:53.163Z,12.12
2022-11-04T00:26:13.837Z,12.00
2022-11-04T00:33:27.399Z,11.96
2022-11-04T00:40:28.961Z,11.84
2022-11-04T00:47:30.558Z,11.94
2022-11-04T00:54:32.138Z,11.94
2022-11-04T01:01:33.840Z,11.89
2022-11-04T01:08:35.487Z,11.86
2022-11-04T01:15:37.852Z,11.68
2022-11-04T01:22:39.433Z,11.55
2022-11-04T01:29:41.021Z,11.65
2022-11-04T01:36:42.613Z,11.67
2022-11-04T01:43:46.593Z,11.66
2022-11-04T01:50:48.608Z,11.67
2022-11-04T01:57:50.311Z,11.64
2022-11-04T02:04:51.909Z,11.63
2022-11-04T02:12:12.145Z,11.56
2022-11-04T02:19:35.152Z,11.66
2022-11-04T02:27:01.008Z,11.69
2022-11-04T02:34:17.614Z,11.67
2022-11-04T02:41:33.577Z,11.63
2022-11-04T02:49:04.483Z,11.54
2022-11-04T02:56:06.100Z,11.50
2022-11-04T03:03:11.478Z,11.53
2022-11-04T03:10:16.129Z,11.53
2022-11-04T03:17:32.452Z,11.56
2022-11-04T03:24:34.019Z,11.60
2022-11-04T03:31:46.207Z,11.63
2022-11-04T03:38:47.824Z,11.56
2022-11-04T03:45:50.116Z,11.55
2022-11-04T03:52:51.742Z,11.56
2022-11-04T04:00:12.597Z,11.60
2022-11-04T04:07:33.088Z,11.53
2022-11-04T04:14:39.425Z,11.60
2022-11-04T04:21:48.398Z,11.58
2022-11-04T04:28:50.519Z,11.53
2022-11-04T04:35:56.107Z,11.58
2022-11-04T04:43:16.283Z,11.66
2022-11-04T04:50:18.933Z,11.64
2022-11-04T04:57:20.488Z,11.70
2022-11-04T05:04:22.081Z,11.71
2022-11-04T05:11:24.563Z,11.80
2022-11-04T05:18:28.713Z,11.78
2022-11-04T05:25:30.240Z,11.76
2022-11-04T05:32:31.867Z,11.77
2022-11-04T05:39:33.424Z,11.76
2022-11-04T05:46:35.031Z,11.91
2022-11-04T05:53:36.647Z,11.96
2022-11-04T06:00:38.207Z,11.92
2022-11-04T06:07:39.805Z,11.96
2022-11-04T06:14:42.176Z,11.91
2022-11-04T06:21:43.826Z,11.88
2022-11-04T06:28:45.484Z,11.97
2022-11-04T06:35:47.063Z,12.06
2022-11-04T06:42:50.477Z,12.01
2022-11-04T06:49:52.032Z,12.15
2022-11-04T06:56:53.598Z,12.15
2022-11-04T07:03:56.502Z,12.18
2022-11-04T07:10:58.068Z,12.27
2022-11-04T07:17:59.880Z,12.30
2022-11-04T07:25:01.597Z,12.40
2022-11-04T07:32:03.332Z,12.48
2022-11-04T07:39:06.636Z,12.45
2022-11-04T07:46:12.545Z,12.55
2022-11-04T07:53:14.115Z,12.68
2022-11-04T08:00:19.123Z,12.84
2022-11-04T08:07:20.711Z,12.97
2022-11-04T08:14:22.284Z,13.08
2022-11-04T08:21:23.860Z,13.13
2022-11-04T08:28:25.622Z,13.27
2022-11-04T08:35:27.176Z,13.31
2022-11-04T08:42:28.752Z,13.34
2022-11-04T08:49:30.329Z,13.33
2022-11-04T08:56:33.458Z,13.33
2022-11-04T09:03:37.658Z,13.55
2022-11-04T09:10:46.271Z,13.56
2022-11-04T09:17:47.842Z,13.62
2022-11-04T09:24:49.449Z,13.69
2022-11-04T09:31:51.126Z,13.69
2022-11-04T09:38:52.693Z,13.75
2022-11-04T09:45:54.299Z,13.79
2022-11-04T09:53:01.102Z,13.81
2022-11-04T10:00:03.137Z,13.91
2022-11-04T10:07:21.061Z,14.06
2022-11-04T10:14:25.689Z,13.92
2022-11-04T10:21:51.300Z,13.89
2022-11-04T10:28:57.126Z,13.96
2022-11-04T10:36:01.403Z,14.19
2022-11-04T10:43:02.998Z,14.17
2022-11-04T10:50:28.761Z,14.18
2022-11-04T10:57:30.934Z,14.04
2022-11-04T11:04:36.046Z,14.11
2022-11-04T11:11:47.242Z,14.23
2022-11-04T11:19:12.793Z,14.29
2022-11-04T11:26:19.299Z,14.24
2022-11-04T11:33:24.869Z,14.23
2022-11-04T11:40:28.653Z,14.06
2022-11-04T11:47:30.218Z,14.07
2022-11-04T11:54:37.494Z,14.10
2022-11-04T12:01:46.789Z,14.03
2022-11-04T12:16:48.753Z,14.01
2022-11-04T12:23:56.186Z,13.93
2022-11-04T12:31:28.769Z,13.91
2022-11-04T12:38:52.103Z,13.99
2022-11-04T12:46:24.362Z,14.08
2022-11-04T12:53:38.240Z,13.99
2022-11-04T13:00:40.321Z,13.99
2022-11-04T13:07:46.459Z,14.03
2022-11-04T13:15:01.677Z,14.04
2022-11-04T13:22:10.131Z,14.08
2022-11-04T13:29:16.398Z,14.05
2022-11-04T13:36:48.871Z,14.09
2022-11-04T13:43:57.237Z,14.05
2022-11-04T13:51:05.196Z,14.00
2022-11-04T13:58:06.765Z,13.97
2022-11-04T14:05:31.126Z,13.98
2022-11-04T14:12:33.150Z,13.99
2022-11-04T14:20:19.853Z,14.04
2022-11-04T14:27:30.537Z,14.06
2022-11-04T14:34:34.439Z,13.97
2022-11-04T14:41:56.306Z,14.05
2022-11-04T14:49:01.040Z,14.02
2022-11-04T14:56:23.222Z,14.01
2022-11-04T15:04:09.378Z,14.02
2022-11-04T15:10:52.078Z,13.99
2022-11-04T15:18:01.640Z,13.99
2022-11-04T15:25:05.747Z,13.95
2022-11-04T15:32:07.511Z,13.93
2022-11-04T15:39:13.009Z,13.88
2022-11-04T15:46:18.497Z,13.81
2022-11-04T15:53:20.126Z,13.79
2022-11-04T16:00:24.592Z,13.71
2022-11-04T16:07:26.261Z,13.67
2022-11-04T16:14:29.646Z,13.61
2022-11-04T16:21:33.501Z,13.64
2022-11-04T16:28:36.590Z,13.68
2022-11-04T16:35:42.617Z,13.59
2022-11-04T16:42:44.808Z,13.57
2022-11-04T16:49:46.618Z,13.48
2022-11-04T16:56:48.270Z,13.46
2022-11-04T17:03:49.884Z,13.44
2022-11-04T17:10:51.686Z,13.48
2022-11-04T17:17:53.259Z,13.51
2022-11-04T17:24:54.843Z,13.49
2022-11-04T17:31:56.477Z,13.53
2022-11-04T17:38:58.103Z,13.52
2022-11-04T17:46:19.660Z,13.44
2022-11-04T17:53:21.330Z,13.50
2022-11-04T18:00:29.269Z,13.53
2022-11-04T18:07:30.842Z,13.50
2022-11-04T18:14:32.930Z,13.44
2022-11-04T18:21:34.547Z,13.41
2022-11-04T18:28:39.337Z,13.47
2022-11-04T18:35:40.943Z,13.44
2022-11-04T18:42:42.571Z,13.41
2022-11-04T18:49:44.132Z,13.39
2022-11-04T18:56:45.852Z,13.32
2022-11-04T19:03:47.563Z,13.31
2022-11-04T19:11:00.789Z,13.20
2022-11-04T19:18:03.374Z,13.23
2022-11-04T19:25:05.298Z,13.29
2022-11-04T19:32:12.732Z,13.26
2022-11-04T19:39:15.692Z,13.20
2022-11-04T19:46:17.243Z,13.13
2022-11-04T19:53:18.806Z,13.16
2022-11-04T20:00:20.729Z,13.10
2022-11-04T20:07:22.290Z,13.18
2022-11-04T20:14:24.258Z,13.15
2022-11-04T20:21:26.597Z,13.16
2022-11-04T20:28:28.214Z,13.07
2022-11-04T20:35:29.841Z,13.09
2022-11-04T20:42:31.407Z,13.10
2022-11-04T20:49:32.957Z,13.08
2022-11-04T20:56:35.964Z,13.08
2022-11-04T21:03:37.552Z,13.14
2022-11-04T21:10:39.092Z,13.14
2022-11-04T21:17:40.640Z,13.14
2022-11-04T21:24:42.194Z,13.14
2022-11-04T21:31:44.008Z,13.04
2022-11-04T21:38:45.675Z,13.01
2022-11-04T21:45:47.254Z,13.04
2022-11-04T21:52:48.809Z,13.07
2022-11-04T21:59:50.366Z,13.02
2022-11-04T22:06:51.923Z,13.04
2022-11-04T22:13:57.872Z,13.05
2022-11-04T22:21:07.566Z,13.04
2022-11-04T22:28:09.126Z,13.01
2022-11-04T22:35:10.721Z,13.00
2022-11-04T22:42:12.322Z,13.01
2022-11-04T22:49:14.768Z,13.03
2022-11-04T22:56:16.359Z,13.06
2022-11-04T23:03:18.116Z,13.11
2022-11-04T23:10:38.555Z,13.11
2022-11-04T23:17:58.715Z,13.07
2022-11-04T23:25:06.641Z,13.09
2022-11-04T23:32:08.604Z,13.04
2022-11-04T23:39:10.158Z,13.09
2022-11-04T23:46:30.271Z,13.09
2022-11-04T23:53:50.466Z,13.05
